Aeroporto :
LOGIN :

Iscrizione | Disclaimer

   EN    FR    IT 

 










Sommario :    VFR   VFR Marginale   IFR   IFR Intensivo   IFR Molto Intensivo
Visibilità : 
Base nubi : 
>= 8 km
>= 3000ft
5 / 8 km
1000 / 3000 ft
1500m / 5 km
500 / 1000 ft
800 / 1500m
200 / 500 ft
< 800m
< 200 ft
Simboli :   Temporali  Nebbia  Neve Forte  Precipitazioni Forti  Vento > 20 kt
SIGMETs :   Varie  Temporali  Ghiacco  Turbolenza  Onda orograficha  Ceneri Vulcaniche






- Altitudine del aeroporto : 309 ft
- Codice IATA : FNI


LFTW - Nîmes Garons

ULTIMO METAR :
  • 010200Z AUTO VRB02KT CAVOK 08/00 Q1019

METARs OBSOLETI :
  • 010130Z AUTO 03003KT CAVOK 08/00 Q1019
  • 010100Z AUTO 05004KT CAVOK 09/01 Q1018
  • 010030Z AUTO 04003KT CAVOK 08/M00 Q1019
  • 010000Z AUTO VRB03KT CAVOK 09/01 Q1018
  • 312330Z AUTO 04002KT CAVOK 09/01 Q1018

TAF TAF LFTW
Valido dal 31 a 15 ore il 01 a 15 ore UTC


311400Z 3115/0115 16010KT 9999 NSC
PROB40
TEMPO 3115/3118 SHRA SCT026TCU
BECMG 3118/3119 VRB05KT



MetMap, La meteo Aeronautica in un colpo d'occhio ! - Copyright ORBIFLY Dicembre 2007 - Disclaimer

ORBIFLY MET'MAP TEAM :

Programmazione e sviluppo : Alexandra Zaïnal
Concezione : Baudouin d'Aumeries
Aiuto per la programmazione : Marc-Olivier Méhu
Supporto tecnico e logistico : Manuel Goepfert
Aiuto per la traduzione : Arnaldo La Scala

Contatto : metmap@orbifly.com




FONTI E CREDITI :

   NOAA